createdAt,value
2018-07-17T00:01:34.396Z,22.03
2018-07-17T00:04:03.489Z,22.07
2018-07-17T00:06:32.623Z,22.13
2018-07-17T00:09:01.597Z,22.14
2018-07-17T00:11:30.652Z,22.15
2018-07-17T00:13:59.677Z,22.12
2018-07-17T00:16:28.717Z,22.11
2018-07-17T00:18:57.744Z,22.07
2018-07-17T00:21:26.773Z,22.08
2018-07-17T00:23:55.873Z,22.11
2018-07-17T00:26:24.908Z,22.13
2018-07-17T00:28:53.912Z,22.06
2018-07-17T00:31:22.973Z,22.01
2018-07-17T00:33:52.145Z,21.94
2018-07-17T00:36:21.138Z,21.93
2018-07-17T00:38:50.161Z,21.91
2018-07-17T00:41:19.269Z,21.81
2018-07-17T00:43:48.312Z,21.79
2018-07-17T00:46:17.357Z,21.69
2018-07-17T00:48:46.367Z,21.46
2018-07-17T00:51:15.408Z,21.36
2018-07-17T00:53:44.377Z,21.20
2018-07-17T00:56:13.601Z,21.04
2018-07-17T00:58:42.656Z,20.91
2018-07-17T01:01:10.636Z,20.87
2018-07-17T01:03:44.715Z,20.89
2018-07-17T01:06:18.873Z,20.96
2018-07-17T01:08:52.968Z,21.05
2018-07-17T01:11:27.157Z,21.14
2018-07-17T01:14:00.942Z,21.20
2018-07-17T01:16:30.022Z,21.26
2018-07-17T01:18:59.020Z,21.26
2018-07-17T01:21:28.114Z,21.39
2018-07-17T01:23:57.218Z,21.47
2018-07-17T01:26:26.302Z,21.54
2018-07-17T01:28:55.441Z,21.56
2018-07-17T01:31:24.432Z,21.54
2018-07-17T01:33:53.459Z,21.53
2018-07-17T01:36:22.587Z,21.54
2018-07-17T01:38:51.605Z,21.51
2018-07-17T01:41:20.756Z,21.54
2018-07-17T01:43:49.772Z,21.54
2018-07-17T01:46:18.883Z,21.51
2018-07-17T01:48:47.843Z,21.53
2018-07-17T01:51:16.960Z,21.53
2018-07-17T01:53:45.995Z,21.52
2018-07-17T01:56:14.946Z,21.45
2018-07-17T01:58:43.929Z,21.44
2018-07-17T02:01:12.908Z,21.38
2018-07-17T02:03:41.916Z,21.31
2018-07-17T02:06:10.949Z,21.07
2018-07-17T02:08:39.935Z,20.94
2018-07-17T02:11:08.940Z,20.65
2018-07-17T02:13:38.050Z,20.45
2018-07-17T02:19:38.970Z,19.97
2018-07-17T02:22:08.105Z,19.77
2018-07-17T02:24:37.081Z,19.63
2018-07-17T02:27:06.192Z,19.46
2018-07-17T02:29:35.288Z,19.33
2018-07-17T02:32:04.313Z,19.29
2018-07-17T02:34:33.357Z,19.22
2018-07-17T02:37:02.327Z,19.16
2018-07-17T02:39:31.423Z,19.18
2018-07-17T02:42:00.437Z,19.18
2018-07-17T02:44:29.522Z,19.24
2018-07-17T02:46:58.510Z,19.25
2018-07-17T02:49:27.592Z,19.29
2018-07-17T02:51:56.653Z,19.30
2018-07-17T02:54:25.637Z,19.32
2018-07-17T02:56:54.725Z,19.44
2018-07-17T02:59:23.814Z,19.54
2018-07-17T03:01:52.891Z,19.66
2018-07-17T03:04:21.893Z,19.79
2018-07-17T03:06:50.895Z,19.86
2018-07-17T03:09:19.900Z,19.94
2018-07-17T03:11:48.962Z,20.04
2018-07-17T03:14:18.072Z,20.08
2018-07-17T03:16:47.094Z,20.10
2018-07-17T03:19:16.053Z,20.16
2018-07-17T03:21:45.090Z,20.26
2018-07-17T03:24:14.044Z,20.33
2018-07-17T03:26:43.012Z,20.39
2018-07-17T03:29:12.080Z,20.44
2018-07-17T03:31:41.130Z,20.56
2018-07-17T03:34:10.145Z,20.57
2018-07-17T03:36:39.224Z,20.72
2018-07-17T03:39:08.920Z,20.92
2018-07-17T03:41:37.896Z,21.14
2018-07-17T03:44:06.949Z,21.40
2018-07-17T03:46:35.915Z,21.52
2018-07-17T03:49:04.964Z,21.51
2018-07-17T03:51:33.934Z,21.59
2018-07-17T03:54:02.940Z,21.62
2018-07-17T03:56:31.988Z,21.61
2018-07-17T03:59:01.003Z,21.73
2018-07-17T04:01:30.010Z,21.72
2018-07-17T04:03:58.961Z,21.66
2018-07-17T04:06:27.989Z,21.67
2018-07-17T04:08:57.040Z,21.88
2018-07-17T04:11:26.066Z,22.31
2018-07-17T04:13:55.995Z,22.61
2018-07-17T04:16:25.001Z,23.63
2018-07-17T04:18:54.012Z,24.07
2018-07-17T04:21:23.077Z,24.34
2018-07-17T04:23:52.089Z,26.22
2018-07-17T04:26:21.076Z,28.08
2018-07-17T04:28:50.153Z,29.65
2018-07-17T04:31:19.209Z,30.95
2018-07-17T04:33:48.243Z,31.94
2018-07-17T04:36:17.277Z,32.63
2018-07-17T04:38:46.349Z,33.30
2018-07-17T04:41:15.547Z,33.96
2018-07-17T04:43:44.527Z,34.25
2018-07-17T04:46:14.447Z,34.63
2018-07-17T04:48:43.566Z,35.05
2018-07-17T04:51:12.532Z,35.79
2018-07-17T04:53:41.569Z,36.27
2018-07-17T04:56:10.500Z,36.67
2018-07-17T04:58:39.555Z,36.78
2018-07-17T05:01:08.720Z,37.08
2018-07-17T05:03:37.919Z,37.11
2018-07-17T05:06:06.980Z,37.66
2018-07-17T05:08:36.001Z,37.67
2018-07-17T05:11:05.083Z,37.86
2018-07-17T05:13:34.069Z,37.80
2018-07-17T05:16:03.094Z,38.49
2018-07-17T05:18:32.147Z,38.86
2018-07-17T05:21:01.266Z,38.97
2018-07-17T05:23:30.333Z,39.13
2018-07-17T05:25:59.392Z,39.29
2018-07-17T05:28:28.462Z,39.56
2018-07-17T05:30:57.520Z,39.91
2018-07-17T05:33:26.527Z,40.46
2018-07-17T05:35:55.569Z,40.59
2018-07-17T05:38:24.707Z,40.88
2018-07-17T05:40:53.764Z,41.34
2018-07-17T05:43:22.801Z,41.20
2018-07-17T05:45:51.808Z,40.82
2018-07-17T05:48:20.784Z,41.08
2018-07-17T05:50:49.861Z,41.22
2018-07-17T05:53:18.816Z,41.29
2018-07-17T05:55:47.998Z,41.37
2018-07-17T05:58:17.042Z,41.19
2018-07-17T06:00:46.929Z,40.86
2018-07-17T06:03:16.135Z,41.17
2018-07-17T06:05:45.188Z,41.41
2018-07-17T06:08:14.252Z,41.44
2018-07-17T06:10:43.266Z,40.88
2018-07-17T06:13:12.309Z,40.25
2018-07-17T06:15:41.349Z,40.52
2018-07-17T06:18:10.460Z,40.84
2018-07-17T06:20:39.549Z,41.07
2018-07-17T06:23:08.581Z,41.23
2018-07-17T06:25:37.722Z,41.23
2018-07-17T06:28:06.709Z,40.98
2018-07-17T06:30:35.752Z,41.20
2018-07-17T06:33:04.811Z,40.55
2018-07-17T06:35:33.768Z,40.50
2018-07-17T06:38:02.822Z,40.56
2018-07-17T06:40:31.823Z,40.81
2018-07-17T06:43:00.878Z,40.62
2018-07-17T06:45:29.902Z,40.00
2018-07-17T06:47:59.001Z,38.50
2018-07-17T06:50:28.081Z,37.66
2018-07-17T06:52:57.000Z,36.90
2018-07-17T06:55:26.055Z,37.22
2018-07-17T06:57:55.360Z,37.76
2018-07-17T07:00:24.356Z,37.75
2018-07-17T07:02:53.346Z,37.25
2018-07-17T07:05:22.401Z,36.76
2018-07-17T07:07:51.547Z,36.41
2018-07-17T07:10:20.531Z,37.20
2018-07-17T07:12:49.609Z,37.70
2018-07-17T07:15:18.594Z,38.19
2018-07-17T07:17:47.606Z,37.99
2018-07-17T07:20:16.656Z,37.33
2018-07-17T07:22:45.757Z,37.10
2018-07-17T07:25:14.736Z,36.74
2018-07-17T07:27:43.761Z,36.29
2018-07-17T07:30:12.814Z,35.86
2018-07-17T07:32:41.784Z,35.57
2018-07-17T07:35:10.840Z,35.41
2018-07-17T07:37:39.821Z,35.66
2018-07-17T07:40:08.904Z,35.83
2018-07-17T07:42:37.889Z,36.03
2018-07-17T07:45:06.888Z,36.12
2018-07-17T07:47:36.449Z,36.63
2018-07-17T07:50:05.547Z,36.93
2018-07-17T07:52:34.670Z,37.08
2018-07-17T07:55:03.692Z,36.81
2018-07-17T07:57:32.716Z,36.21
2018-07-17T08:00:01.760Z,35.49
2018-07-17T08:02:30.773Z,35.00
2018-07-17T08:04:59.768Z,35.03
2018-07-17T08:07:28.796Z,34.84
2018-07-17T08:09:57.848Z,34.76
2018-07-17T08:12:26.836Z,34.39
2018-07-17T08:14:55.848Z,34.16
2018-07-17T08:17:24.820Z,33.99
2018-07-17T08:19:53.801Z,33.88
2018-07-17T08:22:22.828Z,33.63
2018-07-17T08:24:51.912Z,33.38
2018-07-17T08:27:20.955Z,33.30
2018-07-17T08:29:50.039Z,33.23
2018-07-17T08:32:18.919Z,32.81
2018-07-17T08:34:47.965Z,32.98
2018-07-17T08:37:16.935Z,33.16
2018-07-17T08:39:45.986Z,33.44
2018-07-17T08:42:15.016Z,33.83
2018-07-17T08:44:44.146Z,33.88
2018-07-17T08:47:13.173Z,33.88
2018-07-17T08:49:42.198Z,34.00
2018-07-17T08:52:11.249Z,33.92
2018-07-17T08:54:40.267Z,33.67
2018-07-17T08:57:09.295Z,33.60
2018-07-17T08:59:38.332Z,33.66
2018-07-17T09:02:07.842Z,33.60
2018-07-17T09:04:36.802Z,33.54
2018-07-17T09:07:05.926Z,33.74
2018-07-17T09:09:34.970Z,33.82
2018-07-17T09:12:03.985Z,33.61
2018-07-17T09:14:33.022Z,33.55
2018-07-17T09:17:02.060Z,33.30
2018-07-17T09:19:31.173Z,33.15
2018-07-17T09:22:00.138Z,33.29
2018-07-17T09:24:29.157Z,33.28
2018-07-17T09:26:58.188Z,33.41
2018-07-17T09:29:27.189Z,33.28
2018-07-17T09:31:56.251Z,33.62
2018-07-17T09:34:25.276Z,33.81
2018-07-17T09:36:54.339Z,33.94
2018-07-17T09:39:23.415Z,34.11
2018-07-17T09:41:52.501Z,34.05
2018-07-17T09:44:21.588Z,34.10
2018-07-17T09:46:50.642Z,33.94
2018-07-17T09:49:19.616Z,33.89
2018-07-17T09:51:48.585Z,34.18
2018-07-17T09:54:17.691Z,34.54
2018-07-17T09:56:46.655Z,34.97
2018-07-17T09:59:15.712Z,35.87
2018-07-17T10:01:49.836Z,36.30
2018-07-17T10:04:18.782Z,36.43
2018-07-17T10:06:47.816Z,36.94
2018-07-17T10:09:16.785Z,36.99
2018-07-17T10:11:45.769Z,36.88
2018-07-17T10:14:14.811Z,36.88
2018-07-17T10:16:43.914Z,36.74
2018-07-17T10:19:12.957Z,36.36
2018-07-17T10:21:41.985Z,36.31
2018-07-17T10:24:11.028Z,36.30
2018-07-17T10:26:40.107Z,36.61
2018-07-17T10:29:09.173Z,36.99
2018-07-17T10:31:38.125Z,36.99
2018-07-17T10:34:07.273Z,37.01
2018-07-17T10:36:36.277Z,37.05
2018-07-17T10:39:06.424Z,37.17
2018-07-17T10:41:35.461Z,37.33
2018-07-17T10:44:04.664Z,37.47
2018-07-17T10:46:33.744Z,37.35
2018-07-17T10:49:02.809Z,37.57
2018-07-17T10:51:31.899Z,37.72
2018-07-17T10:54:00.934Z,37.60
2018-07-17T10:56:30.001Z,37.69
2018-07-17T10:58:59.492Z,37.61
2018-07-17T11:01:28.628Z,36.94
2018-07-17T11:03:57.616Z,36.40
2018-07-17T11:06:26.595Z,36.33
2018-07-17T11:08:55.652Z,35.83
2018-07-17T11:11:24.721Z,35.58
2018-07-17T11:13:53.759Z,35.30
2018-07-17T11:16:22.849Z,35.01
2018-07-17T11:18:51.968Z,34.65
2018-07-17T11:21:21.017Z,34.55
2018-07-17T11:23:49.996Z,34.03
2018-07-17T11:26:19.108Z,33.65
2018-07-17T11:28:48.050Z,33.21
2018-07-17T11:31:17.025Z,32.96
2018-07-17T11:33:46.027Z,32.64
2018-07-17T11:36:14.989Z,32.41
2018-07-17T11:38:44.116Z,32.09
2018-07-17T11:41:13.065Z,31.64
2018-07-17T11:43:42.185Z,31.40
2018-07-17T11:46:11.258Z,31.13
2018-07-17T11:48:40.216Z,30.97
2018-07-17T11:51:09.184Z,30.86
2018-07-17T11:53:38.141Z,30.90
2018-07-17T11:56:07.173Z,30.84
2018-07-17T11:58:36.241Z,30.64
2018-07-17T12:01:05.370Z,30.45
2018-07-17T12:03:34.319Z,30.19
2018-07-17T12:06:03.336Z,29.84
2018-07-17T12:08:32.304Z,29.53
2018-07-17T12:11:01.262Z,29.49
2018-07-17T12:13:30.224Z,29.60
2018-07-17T12:15:59.183Z,29.75
2018-07-17T12:18:28.257Z,29.82
2018-07-17T12:20:57.292Z,30.00
2018-07-17T12:23:26.309Z,30.19
2018-07-17T12:25:55.410Z,30.22
2018-07-17T12:28:24.356Z,30.18
2018-07-17T12:30:53.413Z,30.20
2018-07-17T12:33:22.372Z,30.23
2018-07-17T12:35:51.456Z,30.34
2018-07-17T12:38:20.461Z,30.53
2018-07-17T12:40:49.444Z,30.81
2018-07-17T12:43:18.404Z,30.87
2018-07-17T12:45:47.382Z,30.30
2018-07-17T12:48:16.413Z,29.93
2018-07-17T12:50:45.753Z,29.67
2018-07-17T12:53:14.775Z,29.77
2018-07-17T12:55:43.824Z,30.29
2018-07-17T12:58:12.965Z,30.79
2018-07-17T13:00:42.023Z,31.04
2018-07-17T13:03:11.004Z,31.02
2018-07-17T13:05:40.004Z,31.12
2018-07-17T13:08:09.004Z,31.34
2018-07-17T13:10:38.103Z,31.99
2018-07-17T13:13:07.087Z,32.38
2018-07-17T13:15:36.055Z,32.92
2018-07-17T13:18:05.140Z,33.57
2018-07-17T13:20:34.106Z,33.35
2018-07-17T13:23:03.125Z,33.36
2018-07-17T13:25:32.220Z,33.96
2018-07-17T13:28:01.188Z,35.18
2018-07-17T13:30:30.234Z,34.54
2018-07-17T13:32:59.671Z,35.35
2018-07-17T13:35:28.739Z,35.49
2018-07-17T13:37:57.772Z,34.34
2018-07-17T13:40:26.877Z,33.83
2018-07-17T13:42:55.904Z,33.99
2018-07-17T13:45:25.045Z,34.47
2018-07-17T13:47:54.117Z,34.92
2018-07-17T13:50:23.190Z,35.65
2018-07-17T13:52:52.345Z,36.50
2018-07-17T13:55:21.385Z,37.10
2018-07-17T13:57:50.344Z,37.37
2018-07-17T14:00:19.388Z,37.23
2018-07-17T14:02:48.735Z,35.81
2018-07-17T14:05:17.773Z,35.34
2018-07-17T14:07:47.229Z,34.88
2018-07-17T14:10:16.328Z,34.60
2018-07-17T14:12:45.305Z,34.18
2018-07-17T14:15:14.332Z,33.75
2018-07-17T14:17:43.322Z,33.19
2018-07-17T14:20:12.421Z,32.82
2018-07-17T14:22:41.445Z,32.32
2018-07-17T14:25:10.433Z,31.94
2018-07-17T14:27:39.537Z,31.50
2018-07-17T14:30:08.543Z,31.32
2018-07-17T14:32:37.556Z,31.20
2018-07-17T14:35:06.549Z,30.98
2018-07-17T14:37:35.567Z,30.68
2018-07-17T14:40:04.664Z,30.36
2018-07-17T14:42:34.384Z,30.19
2018-07-17T14:45:03.537Z,29.99
2018-07-17T14:47:32.512Z,29.86
2018-07-17T14:50:01.522Z,29.51
2018-07-17T14:52:30.524Z,29.37
2018-07-17T14:54:59.464Z,29.14
2018-07-17T14:57:28.805Z,29.10
2018-07-17T14:59:57.841Z,29.06
2018-07-17T15:02:26.894Z,29.05
2018-07-17T15:04:55.934Z,28.94
2018-07-17T15:07:24.927Z,29.04
2018-07-17T15:09:54.352Z,29.05
2018-07-17T15:12:23.432Z,28.76
2018-07-17T15:14:52.432Z,28.48
2018-07-17T15:17:21.448Z,28.33
2018-07-17T15:19:50.497Z,28.21
2018-07-17T15:22:19.557Z,28.20
2018-07-17T15:24:48.564Z,28.07
2018-07-17T15:27:17.653Z,27.80
2018-07-17T15:29:46.633Z,27.34
2018-07-17T15:32:15.607Z,27.14
2018-07-17T15:34:44.580Z,27.13
2018-07-17T15:37:13.686Z,27.02
2018-07-17T15:39:42.656Z,26.93
2018-07-17T15:42:11.708Z,26.81
2018-07-17T15:44:41.674Z,26.84
2018-07-17T15:47:10.686Z,26.83
2018-07-17T15:49:40.719Z,26.81
2018-07-17T15:52:09.671Z,26.77
2018-07-17T15:54:38.694Z,26.82
2018-07-17T15:57:07.743Z,26.88
2018-07-17T15:59:36.748Z,27.06
2018-07-17T16:02:05.897Z,27.09
2018-07-17T16:04:34.852Z,27.00
2018-07-17T16:07:04.791Z,27.01
2018-07-17T16:09:33.743Z,27.02
2018-07-17T16:12:02.764Z,27.17
2018-07-17T16:14:31.809Z,27.18
2018-07-17T16:17:00.780Z,27.11
2018-07-17T16:19:29.792Z,27.08
2018-07-17T16:21:58.798Z,26.97
2018-07-17T16:24:27.759Z,26.90
2018-07-17T16:26:56.704Z,26.87
2018-07-17T16:29:25.825Z,26.96
2018-07-17T16:31:54.794Z,27.03
2018-07-17T16:34:23.762Z,27.03
2018-07-17T16:36:53.736Z,26.96
2018-07-17T16:39:23.300Z,26.88
2018-07-17T16:41:52.290Z,26.89
2018-07-17T16:44:21.344Z,26.85
2018-07-17T16:46:50.376Z,26.84
2018-07-17T16:49:19.396Z,26.90
2018-07-17T16:51:48.491Z,26.98
2018-07-17T16:54:17.530Z,27.02
2018-07-17T16:56:47.138Z,27.00
2018-07-17T16:59:16.155Z,26.98
2018-07-17T17:01:45.296Z,26.92
2018-07-17T17:04:14.382Z,26.81
2018-07-17T17:06:43.327Z,26.80
2018-07-17T17:09:13.120Z,26.72
2018-07-17T17:11:42.384Z,26.62
2018-07-17T17:14:11.512Z,26.50
2018-07-17T17:16:40.948Z,26.42
2018-07-17T17:19:09.932Z,26.28
2018-07-17T17:21:39.087Z,26.26
2018-07-17T17:24:08.194Z,26.11
2018-07-17T17:26:37.228Z,26.02
2018-07-17T17:29:06.224Z,25.92
2018-07-17T17:31:35.262Z,25.77
2018-07-17T17:34:04.273Z,25.69
2018-07-17T17:36:33.304Z,25.64
2018-07-17T17:39:02.445Z,25.60
2018-07-17T17:41:31.481Z,25.51
2018-07-17T17:44:00.490Z,25.41
2018-07-17T17:46:29.452Z,25.35
2018-07-17T17:48:58.450Z,25.37
2018-07-17T17:51:27.552Z,25.34
2018-07-17T17:53:56.573Z,25.32
2018-07-17T17:56:25.693Z,25.29
2018-07-17T17:58:54.710Z,25.23
2018-07-17T18:01:23.854Z,25.18
2018-07-17T18:03:52.908Z,25.15
2018-07-17T18:06:21.928Z,25.12
2018-07-17T18:08:50.904Z,25.12
2018-07-17T18:11:19.856Z,25.11
2018-07-17T18:13:48.953Z,25.14
2018-07-17T18:16:17.912Z,25.08
2018-07-17T18:18:46.980Z,24.99
2018-07-17T18:21:15.976Z,24.94
2018-07-17T18:23:45.082Z,24.87
2018-07-17T18:26:14.073Z,24.78
2018-07-17T18:28:43.092Z,24.70
2018-07-17T18:31:12.164Z,24.64
2018-07-17T18:33:41.108Z,24.63
2018-07-17T18:36:10.176Z,24.59
2018-07-17T18:38:39.153Z,24.56
2018-07-17T18:41:08.101Z,24.45
2018-07-17T18:43:37.094Z,24.42
2018-07-17T18:46:06.351Z,24.34
2018-07-17T18:48:35.691Z,24.27
2018-07-17T18:51:04.729Z,24.27
2018-07-17T18:53:34.030Z,24.29
2018-07-17T18:56:03.049Z,24.32
2018-07-17T18:58:32.072Z,24.35
2018-07-17T19:01:07.580Z,24.38
2018-07-17T19:03:36.905Z,24.39
2018-07-17T19:06:06.266Z,24.43
2018-07-17T19:08:35.227Z,24.38
2018-07-17T19:11:04.315Z,24.25
2018-07-17T19:13:33.308Z,24.14
2018-07-17T19:16:02.287Z,24.10
2018-07-17T19:18:31.345Z,24.07
2018-07-17T19:21:00.337Z,24.02
2018-07-17T19:23:29.312Z,24.03
2018-07-17T19:25:58.339Z,23.99
2018-07-17T19:28:27.524Z,24.00
2018-07-17T19:30:56.561Z,23.94
2018-07-17T19:33:25.546Z,23.91
2018-07-17T19:35:54.689Z,23.88
2018-07-17T19:38:23.673Z,23.90
2018-07-17T19:40:52.737Z,23.88
2018-07-17T19:43:21.836Z,23.91
2018-07-17T19:45:50.968Z,23.99
2018-07-17T19:48:20.119Z,24.06
2018-07-17T19:50:49.127Z,24.13
2018-07-17T19:53:18.157Z,24.24
2018-07-17T19:55:47.208Z,24.29
2018-07-17T19:58:16.254Z,24.38
2018-07-17T20:00:45.345Z,24.44
2018-07-17T20:03:14.417Z,24.51
2018-07-17T20:05:43.400Z,24.57
2018-07-17T20:08:12.502Z,24.57
2018-07-17T20:10:41.452Z,24.59
2018-07-17T20:13:10.490Z,24.65
2018-07-17T20:15:39.548Z,24.64
2018-07-17T20:18:08.588Z,24.63
2018-07-17T20:20:37.653Z,24.59
2018-07-17T20:23:06.757Z,24.57
2018-07-17T20:25:35.774Z,24.59
2018-07-17T20:28:04.877Z,24.56
2018-07-17T20:30:33.913Z,24.48
2018-07-17T20:33:02.933Z,24.47
2018-07-17T20:35:31.972Z,24.44
2018-07-17T20:38:00.994Z,24.41
2018-07-17T20:40:30.110Z,24.35
2018-07-17T20:42:59.101Z,24.30
2018-07-17T20:45:28.226Z,24.31
2018-07-17T20:47:57.307Z,24.30
2018-07-17T20:50:26.285Z,24.29
2018-07-17T20:52:55.284Z,24.36
2018-07-17T20:55:24.342Z,24.38
2018-07-17T20:57:53.369Z,24.35
2018-07-17T21:00:22.409Z,24.34
2018-07-17T21:02:51.505Z,24.33
2018-07-17T21:05:20.481Z,24.34
2018-07-17T21:07:49.517Z,24.35
2018-07-17T21:10:18.504Z,24.34
2018-07-17T21:12:47.474Z,24.29
2018-07-17T21:15:16.508Z,24.27
2018-07-17T21:17:45.544Z,24.23
2018-07-17T21:20:14.649Z,24.19
2018-07-17T21:22:43.687Z,24.16
2018-07-17T21:25:12.787Z,24.10
2018-07-17T21:27:41.878Z,24.13
2018-07-17T21:30:10.938Z,24.11
2018-07-17T21:32:39.983Z,24.06
2018-07-17T21:35:09.077Z,24.00
2018-07-17T21:37:38.138Z,24.03
2018-07-17T21:40:07.093Z,24.00
2018-07-17T21:42:36.100Z,23.99
2018-07-17T21:45:05.257Z,24.03
2018-07-17T21:47:34.284Z,23.99
2018-07-17T21:50:03.333Z,23.95
2018-07-17T21:52:32.299Z,23.89
2018-07-17T21:55:01.454Z,23.82
2018-07-17T21:57:30.436Z,23.73
2018-07-17T21:59:59.520Z,23.71
2018-07-17T22:02:28.748Z,23.65
2018-07-17T22:04:57.732Z,23.64
2018-07-17T22:07:26.730Z,23.56
2018-07-17T22:09:55.703Z,23.50
2018-07-17T22:12:24.755Z,23.49
2018-07-17T22:14:53.797Z,23.45
2018-07-17T22:17:22.753Z,23.31
2018-07-17T22:19:51.753Z,23.33
2018-07-17T22:22:20.846Z,23.23
2018-07-17T22:24:49.841Z,23.22
2018-07-17T22:27:18.961Z,23.16
2018-07-17T22:29:48.000Z,23.08
2018-07-17T22:32:17.019Z,22.98
2018-07-17T22:34:46.113Z,22.89
2018-07-17T22:37:15.160Z,22.80
2018-07-17T22:39:44.408Z,22.74
2018-07-17T22:42:13.502Z,22.65
2018-07-17T22:44:42.541Z,22.63
2018-07-17T22:47:11.741Z,22.60
2018-07-17T22:49:40.715Z,22.57
2018-07-17T22:52:09.804Z,22.54
2018-07-17T22:54:38.779Z,22.55
2018-07-17T22:57:08.059Z,22.58
2018-07-17T22:59:37.121Z,22.60
2018-07-17T23:02:06.237Z,22.64
2018-07-17T23:04:35.282Z,22.61
2018-07-17T23:07:04.371Z,22.62
2018-07-17T23:09:33.434Z,22.61
2018-07-17T23:12:02.592Z,22.61
2018-07-17T23:14:31.559Z,22.62
2018-07-17T23:17:00.600Z,22.60
2018-07-17T23:19:29.652Z,22.58
2018-07-17T23:21:58.792Z,22.55
2018-07-17T23:24:27.845Z,22.51
2018-07-17T23:26:56.850Z,22.47
2018-07-17T23:29:25.885Z,22.46
2018-07-17T23:31:54.872Z,22.54
2018-07-17T23:34:23.908Z,22.48
2018-07-17T23:36:52.965Z,22.50
2018-07-17T23:39:21.928Z,22.49
2018-07-17T23:41:50.969Z,22.46
2018-07-17T23:44:20.017Z,22.48
2018-07-17T23:46:48.975Z,22.45
2018-07-17T23:49:22.967Z,22.37
2018-07-17T23:51:52.053Z,22.32
2018-07-17T23:54:21.084Z,22.32
2018-07-17T23:56:50.061Z,22.26
2018-07-17T23:59:19.025Z,22.20
